createdAt,value
2022-08-16T00:00:04.175Z,0.00
2022-08-16T00:00:56.925Z,0.00
2022-08-16T00:01:55.963Z,0.00
2022-08-16T00:02:55.944Z,0.00
2022-08-16T00:03:56.144Z,0.00
2022-08-16T00:04:59.937Z,0.00
2022-08-16T00:05:57.449Z,0.00
2022-08-16T00:06:55.853Z,0.00
2022-08-16T00:07:56.941Z,0.00
2022-08-16T00:08:55.846Z,0.00
2022-08-16T00:09:55.837Z,0.00
2022-08-16T00:10:55.904Z,0.00
2022-08-16T00:11:55.919Z,0.00
2022-08-16T00:12:55.745Z,0.00
2022-08-16T00:13:55.838Z,0.00
2022-08-16T00:14:56.514Z,0.00
2022-08-16T00:15:55.902Z,0.00
2022-08-16T00:17:05.551Z,0.00
2022-08-16T00:17:57.496Z,0.00
2022-08-16T00:18:55.781Z,0.00
2022-08-16T00:19:55.731Z,0.00
2022-08-16T00:20:55.729Z,0.00
2022-08-16T00:22:01.005Z,0.00
2022-08-16T00:22:56.699Z,0.00
2022-08-16T00:23:55.705Z,0.00
2022-08-16T00:24:55.680Z,0.00
2022-08-16T00:26:36.408Z,0.00
2022-08-16T00:26:56.654Z,0.00
2022-08-16T00:27:55.656Z,0.00
2022-08-16T00:28:55.655Z,0.00
2022-08-16T00:30:08.672Z,0.00
2022-08-16T00:30:56.643Z,0.00
2022-08-16T00:32:00.855Z,0.00
2022-08-16T00:32:57.203Z,0.00
2022-08-16T00:33:55.619Z,0.00
2022-08-16T00:34:55.575Z,0.00
2022-08-16T00:35:56.586Z,0.00
2022-08-16T00:36:55.915Z,0.00
2022-08-16T00:37:58.397Z,0.00
2022-08-16T00:38:56.317Z,0.00
2022-08-16T00:39:57.284Z,0.00
2022-08-16T00:40:55.639Z,0.00
2022-08-16T00:41:55.505Z,0.00
2022-08-16T00:42:55.493Z,0.00
2022-08-16T00:43:55.490Z,0.00
2022-08-16T00:44:55.523Z,0.00
2022-08-16T00:46:00.273Z,0.00
2022-08-16T00:47:02.468Z,0.00
2022-08-16T00:47:56.599Z,0.00
2022-08-16T00:48:55.502Z,0.00
2022-08-16T00:49:56.295Z,0.00
2022-08-16T00:50:55.634Z,0.00
2022-08-16T00:51:55.754Z,0.00
2022-08-16T00:52:55.796Z,0.00
2022-08-16T00:53:55.784Z,0.00
2022-08-16T00:54:55.406Z,0.00
2022-08-16T00:55:55.368Z,0.00
2022-08-16T00:56:58.035Z,0.00
2022-08-16T00:57:58.500Z,0.00
2022-08-16T00:58:55.336Z,0.00
2022-08-16T00:59:59.654Z,0.00
2022-08-16T01:00:56.441Z,0.00
2022-08-16T01:01:55.341Z,0.00
2022-08-16T01:02:55.295Z,0.00
2022-08-16T01:03:55.294Z,0.00
2022-08-16T01:05:10.455Z,0.00
2022-08-16T01:05:56.345Z,0.00
2022-08-16T01:07:01.347Z,0.00
2022-08-16T01:07:56.247Z,0.00
2022-08-16T01:08:55.244Z,0.00
2022-08-16T01:09:55.233Z,0.00
2022-08-16T01:10:55.211Z,0.00
2022-08-16T01:11:55.491Z,0.00
2022-08-16T01:12:55.201Z,0.00
2022-08-16T01:13:55.238Z,0.00
2022-08-16T01:14:55.275Z,0.00
2022-08-16T01:15:55.215Z,0.00
2022-08-16T01:16:55.308Z,0.00
2022-08-16T01:17:56.176Z,0.00
2022-08-16T01:18:55.149Z,0.00
2022-08-16T01:19:56.891Z,0.00
2022-08-16T01:20:55.171Z,0.00
2022-08-16T01:21:55.122Z,0.00
2022-08-16T01:22:55.838Z,0.00
2022-08-16T01:24:00.847Z,0.00
2022-08-16T01:24:56.202Z,0.00
2022-08-16T01:26:00.025Z,0.00
2022-08-16T01:26:56.519Z,0.00
2022-08-16T01:27:56.177Z,0.00
2022-08-16T01:28:55.140Z,0.00
2022-08-16T01:29:57.703Z,0.00
2022-08-16T01:30:55.052Z,0.00
2022-08-16T01:31:55.030Z,0.00
2022-08-16T01:33:02.137Z,0.00
2022-08-16T01:33:54.968Z,0.00
2022-08-16T01:34:56.783Z,0.00
2022-08-16T01:35:56.224Z,0.00
2022-08-16T01:36:58.154Z,0.00
2022-08-16T01:37:54.954Z,0.00
2022-08-16T01:38:57.251Z,0.00
2022-08-16T01:39:54.964Z,0.00
2022-08-16T01:40:54.936Z,0.00
2022-08-16T01:41:55.104Z,0.00
2022-08-16T01:42:55.482Z,0.00
2022-08-16T01:43:54.968Z,0.00
2022-08-16T01:44:54.989Z,0.00
2022-08-16T01:45:57.843Z,0.00
2022-08-16T01:46:54.974Z,0.00
2022-08-16T01:47:54.997Z,0.00
2022-08-16T01:48:54.941Z,0.00
2022-08-16T01:50:42.000Z,0.00
2022-08-16T01:51:08.533Z,0.00
2022-08-16T01:51:55.831Z,0.00
2022-08-16T01:52:54.915Z,0.00
2022-08-16T01:53:55.806Z,0.00
2022-08-16T01:54:54.824Z,0.00
2022-08-16T01:55:54.802Z,0.00
2022-08-16T01:56:54.784Z,0.00
2022-08-16T01:57:56.442Z,0.00
2022-08-16T01:58:54.939Z,0.00
2022-08-16T01:59:54.998Z,0.00
2022-08-16T02:00:54.887Z,0.00
2022-08-16T02:02:00.018Z,0.00
2022-08-16T02:02:55.782Z,0.00
2022-08-16T02:03:58.647Z,0.00
2022-08-16T02:04:55.707Z,0.00
2022-08-16T02:05:54.701Z,0.00
2022-08-16T02:06:54.686Z,0.00
2022-08-16T02:07:54.739Z,0.00
2022-08-16T02:08:54.671Z,0.00
2022-08-16T02:09:58.638Z,0.00
2022-08-16T02:10:55.692Z,0.00
2022-08-16T02:11:54.632Z,0.00
2022-08-16T02:13:00.103Z,0.00
2022-08-16T02:13:54.916Z,0.00
2022-08-16T02:14:54.628Z,0.00
2022-08-16T02:15:54.595Z,0.00
2022-08-16T02:16:54.600Z,0.00
2022-08-16T02:17:54.593Z,0.00
2022-08-16T02:18:54.570Z,0.00
2022-08-16T02:19:58.688Z,0.00
2022-08-16T02:20:55.558Z,0.00
2022-08-16T02:22:08.904Z,0.00
2022-08-16T02:22:55.562Z,0.00
2022-08-16T02:23:55.788Z,0.00
2022-08-16T02:24:54.788Z,0.00
2022-08-16T02:25:54.704Z,0.00
2022-08-16T02:26:54.582Z,0.00
2022-08-16T02:27:54.614Z,0.00
2022-08-16T02:28:54.580Z,0.00
2022-08-16T02:30:04.900Z,0.00
2022-08-16T02:30:55.538Z,0.00
2022-08-16T02:32:03.842Z,0.00
2022-08-16T02:32:55.515Z,0.00
2022-08-16T02:33:54.667Z,0.00
2022-08-16T02:34:56.350Z,0.00
2022-08-16T02:35:58.163Z,0.00
2022-08-16T02:36:55.402Z,0.00
2022-08-16T02:37:56.157Z,0.00
2022-08-16T02:38:54.450Z,0.00
2022-08-16T02:39:54.483Z,0.00
2022-08-16T02:40:54.859Z,0.00
2022-08-16T02:41:54.347Z,0.00
2022-08-16T02:42:54.406Z,0.00
2022-08-16T02:43:54.403Z,0.00
2022-08-16T02:44:54.414Z,0.00
2022-08-16T02:45:54.464Z,0.00
2022-08-16T02:46:54.402Z,0.00
2022-08-16T02:48:01.775Z,0.00
2022-08-16T02:48:55.377Z,0.00
2022-08-16T02:50:52.874Z,0.00
2022-08-16T02:51:06.784Z,0.00
2022-08-16T02:51:55.242Z,0.00
2022-08-16T02:52:54.313Z,0.00
2022-08-16T02:53:54.242Z,0.00
2022-08-16T02:54:55.261Z,0.00
2022-08-16T02:55:54.210Z,0.00
2022-08-16T02:56:54.254Z,0.00
2022-08-16T02:57:54.775Z,0.00
2022-08-16T02:58:54.319Z,0.00
2022-08-16T02:59:54.207Z,0.00
2022-08-16T03:00:56.075Z,0.00
2022-08-16T03:01:55.413Z,0.00
2022-08-16T03:02:55.969Z,0.00
2022-08-16T03:04:39.667Z,0.00
2022-08-16T03:04:55.127Z,0.00
2022-08-16T03:05:54.158Z,0.00
2022-08-16T03:06:56.823Z,0.00
2022-08-16T03:07:54.086Z,0.00
2022-08-16T03:08:54.138Z,0.00
2022-08-16T03:09:54.067Z,0.00
2022-08-16T03:10:54.068Z,0.00
2022-08-16T03:11:55.161Z,0.00
2022-08-16T03:12:56.290Z,0.00
2022-08-16T03:13:56.541Z,0.00
2022-08-16T03:14:54.024Z,0.00
2022-08-16T03:15:54.041Z,0.00
2022-08-16T03:16:59.052Z,0.00
2022-08-16T03:17:55.079Z,0.00
2022-08-16T03:18:54.005Z,0.00
2022-08-16T03:19:59.800Z,0.00
2022-08-16T03:20:55.702Z,0.00
2022-08-16T03:21:53.957Z,0.00
2022-08-16T03:22:53.946Z,0.00
2022-08-16T03:23:53.932Z,0.00
2022-08-16T03:24:53.938Z,0.00
2022-08-16T03:25:53.922Z,0.00
2022-08-16T03:26:53.977Z,0.00
2022-08-16T03:27:54.020Z,0.00
2022-08-16T03:28:53.986Z,0.00
2022-08-16T03:29:54.789Z,0.00
2022-08-16T03:30:55.374Z,0.00
2022-08-16T03:31:53.859Z,0.00
2022-08-16T03:32:53.958Z,0.00
2022-08-16T03:33:53.890Z,0.00
2022-08-16T03:34:53.941Z,0.00
2022-08-16T03:35:56.954Z,0.00
2022-08-16T03:36:53.868Z,0.00
2022-08-16T03:38:03.248Z,4.00
2022-08-16T03:38:54.828Z,4.00
2022-08-16T03:39:56.690Z,0.00
2022-08-16T03:40:53.771Z,4.00
2022-08-16T03:41:59.874Z,4.00
2022-08-16T03:43:18.951Z,4.00
2022-08-16T03:43:54.751Z,8.00
2022-08-16T03:45:03.430Z,4.00
2022-08-16T03:45:54.762Z,4.00
2022-08-16T03:46:53.716Z,8.00
2022-08-16T03:47:58.324Z,12.00
2022-08-16T03:48:53.720Z,8.00
2022-08-16T03:49:53.740Z,12.00
2022-08-16T03:51:00.087Z,16.00
2022-08-16T03:51:54.714Z,20.00
2022-08-16T03:52:59.613Z,20.00
2022-08-16T03:54:01.060Z,24.00
2022-08-16T03:54:59.406Z,28.00
2022-08-16T03:55:54.628Z,36.00
2022-08-16T03:56:56.797Z,40.00
2022-08-16T03:57:53.611Z,40.00
2022-08-16T03:58:53.610Z,48.00
2022-08-16T03:59:53.607Z,56.00
2022-08-16T04:00:59.041Z,68.00
2022-08-16T04:01:54.608Z,72.00
2022-08-16T04:02:53.570Z,80.00
2022-08-16T04:03:55.175Z,92.00
2022-08-16T04:04:53.639Z,104.00
2022-08-16T04:05:54.054Z,112.00
2022-08-16T04:06:53.789Z,128.00
2022-08-16T04:07:53.639Z,136.00
2022-08-16T04:08:53.603Z,152.00
2022-08-16T04:09:53.725Z,168.00
2022-08-16T04:10:53.633Z,180.00
2022-08-16T04:11:53.537Z,200.00
2022-08-16T04:12:59.354Z,216.00
2022-08-16T04:14:01.310Z,236.00
2022-08-16T04:14:58.389Z,252.00
2022-08-16T04:15:53.478Z,272.00
2022-08-16T04:16:53.424Z,292.00
2022-08-16T04:17:53.411Z,312.00
2022-08-16T04:18:53.424Z,336.00
2022-08-16T04:19:54.888Z,360.00
2022-08-16T04:20:53.409Z,380.00
2022-08-16T04:21:53.461Z,404.00
2022-08-16T04:22:53.419Z,428.00
2022-08-16T04:23:54.719Z,448.00
2022-08-16T04:24:54.803Z,472.00
2022-08-16T04:25:53.356Z,500.00
2022-08-16T04:26:53.327Z,520.00
2022-08-16T04:27:55.681Z,548.00
2022-08-16T04:29:16.350Z,572.00
2022-08-16T04:29:54.337Z,600.00
2022-08-16T04:30:54.293Z,628.00
2022-08-16T04:31:56.185Z,652.00
2022-08-16T04:32:53.310Z,676.00
2022-08-16T04:33:53.256Z,704.00
2022-08-16T04:34:53.670Z,728.00
2022-08-16T04:35:53.259Z,756.00
2022-08-16T04:36:53.282Z,780.00
2022-08-16T04:37:53.820Z,808.00
2022-08-16T04:38:53.253Z,832.00
2022-08-16T04:39:57.012Z,856.00
2022-08-16T04:40:54.358Z,880.00
2022-08-16T04:41:57.128Z,904.00
2022-08-16T04:42:53.205Z,932.00
2022-08-16T04:43:53.196Z,956.00
2022-08-16T04:44:55.331Z,976.00
2022-08-16T04:46:00.129Z,1004.00
2022-08-16T04:47:02.960Z,1024.00
2022-08-16T04:47:56.186Z,1048.00
2022-08-16T04:48:53.265Z,1068.00
2022-08-16T04:49:53.248Z,1096.00
2022-08-16T04:50:53.040Z,1116.00
2022-08-16T04:51:53.877Z,1144.00
2022-08-16T04:52:53.305Z,1164.00
2022-08-16T04:53:53.042Z,1184.00
2022-08-16T04:54:53.070Z,1208.00
2022-08-16T04:55:53.644Z,1228.00
2022-08-16T04:56:53.092Z,1236.00
2022-08-16T04:57:53.645Z,1248.00
2022-08-16T04:58:53.059Z,1272.00
2022-08-16T04:59:54.149Z,1296.00
2022-08-16T05:00:53.163Z,1316.00
2022-08-16T05:01:58.788Z,1344.00
2022-08-16T05:02:55.628Z,1368.00
2022-08-16T05:04:00.434Z,1392.00
2022-08-16T05:04:54.009Z,1424.00
2022-08-16T05:05:59.598Z,1448.00
2022-08-16T05:06:54.039Z,1476.00
2022-08-16T05:07:58.668Z,1500.00
2022-08-16T05:08:56.432Z,1524.00
2022-08-16T05:09:52.921Z,1544.00
2022-08-16T05:10:52.897Z,1564.00
2022-08-16T05:11:57.585Z,1588.00
2022-08-16T05:12:52.887Z,1604.00
2022-08-16T05:13:52.887Z,1628.00
2022-08-16T05:15:02.094Z,1652.00
2022-08-16T05:15:53.870Z,1668.00
2022-08-16T05:16:52.840Z,1688.00
2022-08-16T05:17:58.796Z,1704.00
2022-08-16T05:18:53.822Z,1728.00
2022-08-16T05:19:57.507Z,1748.00
2022-08-16T05:21:01.802Z,1768.00
2022-08-16T05:21:53.793Z,1788.00
2022-08-16T05:22:53.052Z,1812.00
2022-08-16T05:23:58.564Z,1832.00
2022-08-16T05:24:54.950Z,1856.00
2022-08-16T05:25:52.905Z,1876.00
2022-08-16T05:26:52.839Z,1896.00
2022-08-16T05:27:52.852Z,1912.00
2022-08-16T05:28:55.798Z,1928.00
2022-08-16T05:30:01.040Z,1944.00
2022-08-16T05:30:53.881Z,1956.00
2022-08-16T05:31:53.243Z,1968.00
2022-08-16T05:32:52.888Z,1984.00
2022-08-16T05:33:53.530Z,1996.00
2022-08-16T05:34:52.756Z,2008.00
2022-08-16T05:35:54.954Z,2028.00
2022-08-16T05:36:52.641Z,2044.00
2022-08-16T05:37:52.653Z,2056.00
2022-08-16T05:38:52.621Z,2064.00
2022-08-16T05:39:55.268Z,2076.00
2022-08-16T05:40:59.724Z,2088.00
2022-08-16T05:41:53.603Z,2100.00
2022-08-16T05:42:52.733Z,2108.00
2022-08-16T05:43:52.580Z,2116.00
2022-08-16T05:44:53.624Z,2128.00
2022-08-16T05:45:52.590Z,2136.00
2022-08-16T05:46:52.546Z,2156.00
2022-08-16T05:48:00.307Z,2164.00
2022-08-16T05:48:54.708Z,2168.00
2022-08-16T05:49:52.542Z,2168.00
2022-08-16T05:50:52.978Z,2208.00
2022-08-16T05:51:52.497Z,2228.00
2022-08-16T05:52:52.481Z,2260.00
2022-08-16T05:53:52.487Z,2288.00
2022-08-16T05:54:58.443Z,2312.00
2022-08-16T05:55:53.463Z,2336.00
2022-08-16T05:56:52.434Z,2364.00
2022-08-16T05:57:52.821Z,2384.00
2022-08-16T05:58:52.431Z,2408.00
2022-08-16T05:59:59.819Z,2424.00
2022-08-16T06:00:53.420Z,2444.00
2022-08-16T06:01:52.459Z,2456.00
2022-08-16T06:02:52.399Z,2464.00
2022-08-16T06:03:52.424Z,2476.00
2022-08-16T06:04:52.408Z,2488.00
2022-08-16T06:05:52.475Z,2504.00
2022-08-16T06:06:56.974Z,2516.00
2022-08-16T06:07:58.243Z,2528.00
2022-08-16T06:08:53.381Z,2548.00
2022-08-16T06:09:52.512Z,2564.00
2022-08-16T06:11:02.629Z,2584.00
2022-08-16T06:11:53.341Z,2600.00
2022-08-16T06:12:55.359Z,2620.00
2022-08-16T06:13:52.306Z,2640.00
2022-08-16T06:14:52.309Z,2664.00
2022-08-16T06:15:52.312Z,2684.00
2022-08-16T06:16:52.274Z,2712.00
2022-08-16T06:17:52.255Z,2736.00
2022-08-16T06:18:52.253Z,2764.00
2022-08-16T06:19:52.228Z,2796.00
2022-08-16T06:20:55.089Z,2820.00
2022-08-16T06:21:54.869Z,2844.00
2022-08-16T06:22:58.658Z,2868.00
2022-08-16T06:23:54.330Z,2884.00
2022-08-16T06:24:54.447Z,2896.00
2022-08-16T06:25:53.213Z,2908.00
2022-08-16T06:26:57.866Z,2924.00
2022-08-16T06:27:57.476Z,2936.00
2022-08-16T06:28:53.136Z,2952.00
2022-08-16T06:29:52.131Z,2964.00
2022-08-16T06:30:52.222Z,2988.00
2022-08-16T06:31:52.209Z,3004.00
2022-08-16T06:32:52.429Z,3036.00
2022-08-16T06:33:52.294Z,3064.00
2022-08-16T06:34:56.707Z,3088.00
2022-08-16T06:35:55.074Z,3112.00
2022-08-16T06:36:59.364Z,3128.00
2022-08-16T06:37:53.056Z,3136.00
2022-08-16T06:38:55.375Z,3152.00
2022-08-16T06:39:52.077Z,3156.00
2022-08-16T06:40:52.027Z,3168.00
2022-08-16T06:41:52.017Z,3180.00
2022-08-16T06:42:57.141Z,3192.00
2022-08-16T06:43:51.990Z,3216.00
2022-08-16T06:44:51.983Z,3240.00
2022-08-16T06:45:51.987Z,3260.00
2022-08-16T06:46:51.925Z,3288.00
2022-08-16T06:47:52.851Z,3304.00
2022-08-16T06:48:52.004Z,3324.00
2022-08-16T06:49:53.837Z,3340.00
2022-08-16T06:50:52.068Z,3356.00
2022-08-16T06:51:52.618Z,3380.00
2022-08-16T06:53:00.223Z,3408.00
2022-08-16T06:53:52.920Z,3428.00
2022-08-16T06:54:51.973Z,3452.00
2022-08-16T06:55:53.878Z,3460.00
2022-08-16T06:56:54.207Z,3484.00
2022-08-16T06:57:51.861Z,3512.00
2022-08-16T06:58:51.985Z,3540.00
2022-08-16T06:59:58.172Z,3572.00
2022-08-16T07:00:51.903Z,3600.00
2022-08-16T07:01:54.810Z,3628.00
2022-08-16T07:02:52.295Z,3656.00
2022-08-16T07:03:55.708Z,3676.00
2022-08-16T07:04:52.888Z,3712.00
2022-08-16T07:05:52.051Z,3744.00
2022-08-16T07:06:51.802Z,3768.00
2022-08-16T07:07:51.759Z,3796.00
2022-08-16T07:08:51.718Z,3740.00
2022-08-16T07:09:51.741Z,3844.00
2022-08-16T07:10:51.847Z,3876.00
2022-08-16T07:11:52.199Z,3904.00
2022-08-16T07:13:03.873Z,3936.00
2022-08-16T07:14:00.137Z,3964.00
2022-08-16T07:14:52.689Z,4000.00
2022-08-16T07:15:51.703Z,4048.00
2022-08-16T07:16:51.756Z,4092.00
2022-08-16T07:17:51.746Z,4136.00
2022-08-16T07:18:59.097Z,4160.00
2022-08-16T07:20:03.812Z,4180.00
2022-08-16T07:20:52.681Z,4204.00
2022-08-16T07:21:59.639Z,4224.00
2022-08-16T07:22:53.114Z,4248.00
2022-08-16T07:23:57.814Z,4288.00
2022-08-16T07:24:52.562Z,4332.00
2022-08-16T07:25:51.608Z,4376.00
2022-08-16T07:26:51.525Z,4424.00
2022-08-16T07:27:51.504Z,4480.00
2022-08-16T07:28:51.601Z,4536.00
2022-08-16T07:29:51.627Z,4572.00
2022-08-16T07:30:51.555Z,4628.00
2022-08-16T07:31:51.545Z,4688.00
2022-08-16T07:32:52.088Z,4744.00
2022-08-16T07:33:54.862Z,4800.00
2022-08-16T07:34:51.503Z,4856.00
2022-08-16T07:35:51.503Z,4920.00
2022-08-16T07:36:58.229Z,5004.00
2022-08-16T07:37:51.412Z,5084.00
2022-08-16T07:38:51.522Z,5216.00
2022-08-16T07:39:51.571Z,5452.00
2022-08-16T07:40:59.747Z,6016.00
2022-08-16T07:41:52.432Z,11484.00
2022-08-16T07:42:51.420Z,18336.00
2022-08-16T07:43:51.414Z,22080.00
2022-08-16T07:44:51.407Z,21984.00
2022-08-16T07:45:53.251Z,22464.00
2022-08-16T07:46:55.536Z,24928.00
2022-08-16T07:47:51.495Z,24256.00
2022-08-16T07:48:51.407Z,21440.00
2022-08-16T07:49:52.863Z,23296.00
2022-08-16T07:50:55.740Z,18368.00
2022-08-16T07:51:55.918Z,8588.00
2022-08-16T07:52:51.461Z,5704.00
2022-08-16T07:54:02.526Z,5552.00
2022-08-16T07:54:53.323Z,5460.00
2022-08-16T07:55:51.424Z,5368.00
2022-08-16T07:56:51.363Z,5292.00
2022-08-16T07:58:00.659Z,5276.00
2022-08-16T07:58:55.625Z,5308.00
2022-08-16T07:59:52.274Z,5396.00
2022-08-16T08:00:51.551Z,5488.00
2022-08-16T08:01:53.024Z,5796.00
2022-08-16T08:02:52.052Z,7020.00
2022-08-16T08:03:51.249Z,16128.00
2022-08-16T08:04:51.196Z,31200.00
2022-08-16T08:05:51.223Z,36896.00
2022-08-16T08:06:51.378Z,36128.00
2022-08-16T08:07:51.446Z,30656.00
2022-08-16T08:08:52.782Z,32192.00
2022-08-16T08:09:51.166Z,36896.00
2022-08-16T08:10:51.249Z,37152.00
2022-08-16T08:12:00.941Z,37632.00
2022-08-16T08:12:52.321Z,39744.00
2022-08-16T08:13:51.339Z,38848.00
2022-08-16T08:14:51.163Z,38048.00
2022-08-16T08:15:53.098Z,39552.00
2022-08-16T08:16:51.142Z,41920.00
2022-08-16T08:17:51.237Z,41184.00
2022-08-16T08:18:56.136Z,39648.00
2022-08-16T08:19:53.326Z,42976.00
2022-08-16T08:20:59.560Z,45696.00
2022-08-16T08:21:59.118Z,43424.00
2022-08-16T08:22:52.024Z,30016.00
2022-08-16T08:23:51.020Z,14024.00
2022-08-16T08:24:51.006Z,8240.00
2022-08-16T08:25:52.743Z,7988.00
2022-08-16T08:26:51.005Z,7904.00
2022-08-16T08:27:50.980Z,7840.00
2022-08-16T08:28:51.966Z,7848.00
2022-08-16T08:30:43.955Z,7880.00
2022-08-16T08:31:02.743Z,7960.00
2022-08-16T08:31:51.962Z,8064.00
2022-08-16T08:32:59.736Z,8216.00
2022-08-16T08:33:52.147Z,8392.00
2022-08-16T08:34:50.913Z,8640.00
2022-08-16T08:35:51.291Z,8960.00
2022-08-16T08:36:54.418Z,9516.00
2022-08-16T08:37:55.280Z,10792.00
2022-08-16T08:38:51.903Z,23296.00
2022-08-16T08:39:55.218Z,43104.00
2022-08-16T08:40:50.954Z,52896.00
2022-08-16T08:41:51.742Z,53152.00
2022-08-16T08:42:50.882Z,51488.00
2022-08-16T08:43:51.971Z,52864.00
2022-08-16T08:44:50.839Z,54080.00
2022-08-16T08:45:53.011Z,52608.00
2022-08-16T08:46:59.799Z,53184.00
2022-08-16T08:47:54.299Z,53600.00
2022-08-16T08:49:00.084Z,54048.00
2022-08-16T08:49:55.890Z,54528.00
2022-08-16T08:50:51.759Z,53920.00
2022-08-16T08:51:50.799Z,53856.00
2022-08-16T08:52:50.914Z,53696.00
2022-08-16T08:53:57.961Z,54624.00
2022-08-16T08:54:51.669Z,54880.00
2022-08-16T08:55:58.751Z,53696.00
2022-08-16T08:56:50.717Z,53568.00
2022-08-16T08:57:50.647Z,54496.00
2022-08-16T08:58:54.800Z,54336.00
2022-08-16T08:59:51.681Z,58208.00
2022-08-16T09:00:51.640Z,58784.00
2022-08-16T09:01:56.793Z,56672.00
2022-08-16T09:02:52.199Z,50080.00
2022-08-16T09:03:50.697Z,41760.00
2022-08-16T09:04:50.646Z,40544.00
2022-08-16T09:05:51.650Z,50208.00
2022-08-16T09:06:50.671Z,57824.00
2022-08-16T09:08:00.631Z,61056.00
2022-08-16T09:08:51.635Z,61216.00
2022-08-16T09:09:50.677Z,16016.00
2022-08-16T09:11:02.241Z,62304.00
2022-08-16T09:12:04.025Z,62048.00
2022-08-16T09:12:51.843Z,63488.00
2022-08-16T09:13:51.137Z,61632.00
2022-08-16T09:14:51.287Z,62528.00
2022-08-16T09:15:50.578Z,62496.00
2022-08-16T09:17:02.798Z,62144.00
2022-08-16T09:17:53.516Z,61600.00
2022-08-16T09:18:54.902Z,64192.00
2022-08-16T09:19:55.177Z,65504.00
2022-08-16T09:20:58.876Z,66848.00
2022-08-16T09:21:56.018Z,64576.00
2022-08-16T09:22:51.330Z,61472.00
2022-08-16T09:23:50.487Z,60480.00
2022-08-16T09:24:52.041Z,65760.00
2022-08-16T09:25:50.635Z,15440.00
2022-08-16T09:26:52.460Z,11428.00
2022-08-16T09:27:57.792Z,68064.00
2022-08-16T09:29:14.722Z,71040.00
2022-08-16T09:29:59.892Z,68416.00
2022-08-16T09:30:51.411Z,66208.00
2022-08-16T09:31:53.529Z,64352.00
2022-08-16T09:32:50.654Z,68448.00
2022-08-16T09:33:51.975Z,70624.00
2022-08-16T09:34:50.413Z,68352.00
2022-08-16T09:35:53.111Z,65888.00
2022-08-16T09:36:54.635Z,66528.00
2022-08-16T09:38:00.640Z,64608.00
2022-08-16T09:38:51.311Z,66272.00
2022-08-16T09:39:51.407Z,67136.00
2022-08-16T09:40:50.420Z,63936.00
2022-08-16T09:41:53.559Z,66688.00
2022-08-16T09:43:05.275Z,66880.00
2022-08-16T09:43:58.009Z,69152.00
2022-08-16T09:45:11.854Z,69760.00
2022-08-16T09:45:51.290Z,20896.00
2022-08-16T09:46:52.864Z,45056.00
2022-08-16T09:47:57.320Z,76672.00
2022-08-16T09:48:51.303Z,76576.00
2022-08-16T09:49:51.046Z,77024.00
2022-08-16T09:50:50.248Z,72896.00
2022-08-16T09:51:50.413Z,75904.00
2022-08-16T09:52:50.459Z,73952.00
2022-08-16T09:53:54.014Z,56960.00
2022-08-16T09:54:50.254Z,74240.00
2022-08-16T09:55:50.360Z,78976.00
2022-08-16T09:56:53.318Z,77888.00
2022-08-16T09:57:52.948Z,71552.00
2022-08-16T09:59:05.525Z,67584.00
2022-08-16T09:59:56.379Z,71296.00
2022-08-16T10:00:51.217Z,76256.00
2022-08-16T10:01:50.200Z,69824.00
2022-08-16T10:02:50.286Z,67648.00
2022-08-16T10:04:02.773Z,72864.00
2022-08-16T10:04:54.622Z,80352.00
2022-08-16T10:05:50.118Z,81856.00
2022-08-16T10:06:50.210Z,79680.00
2022-08-16T10:07:50.536Z,81184.00
2022-08-16T10:09:05.375Z,86720.00
2022-08-16T10:09:55.797Z,90304.00
2022-08-16T10:10:51.154Z,92192.00
2022-08-16T10:11:51.157Z,90720.00
2022-08-16T10:12:56.057Z,92480.00
2022-08-16T10:13:51.232Z,84512.00
2022-08-16T10:14:50.242Z,14380.00
2022-08-16T10:15:55.427Z,84096.00
2022-08-16T10:16:51.040Z,85600.00
2022-08-16T10:18:00.396Z,87808.00
2022-08-16T10:19:00.656Z,92384.00
2022-08-16T10:19:51.007Z,98112.00
2022-08-16T10:20:50.022Z,99840.00
2022-08-16T10:21:56.562Z,98944.00
2022-08-16T10:22:55.412Z,95584.00
2022-08-16T10:23:50.976Z,93024.00
2022-08-16T10:24:55.573Z,93472.00
2022-08-16T10:27:00.758Z,92480.00
2022-08-16T10:27:20.324Z,95392.00
2022-08-16T10:27:56.802Z,92288.00
2022-08-16T10:28:51.185Z,92448.00
2022-08-16T10:30:00.098Z,91584.00
2022-08-16T10:30:56.605Z,86784.00
2022-08-16T10:31:53.226Z,84128.00
2022-08-16T10:32:50.031Z,86816.00
2022-08-16T10:33:49.985Z,87744.00
2022-08-16T10:34:51.390Z,87072.00
2022-08-16T10:35:49.971Z,85440.00
2022-08-16T10:36:54.367Z,85376.00
2022-08-16T10:37:50.175Z,90016.00
2022-08-16T10:38:49.902Z,92768.00
2022-08-16T10:39:49.966Z,37344.00
2022-08-16T10:40:50.839Z,87680.00
2022-08-16T10:41:49.858Z,87904.00
2022-08-16T10:42:50.398Z,88672.00
2022-08-16T10:43:50.278Z,90592.00
2022-08-16T10:44:53.779Z,91968.00
2022-08-16T10:45:57.191Z,87712.00
2022-08-16T10:46:50.900Z,79392.00
2022-08-16T10:48:03.194Z,69184.00
2022-08-16T10:48:50.862Z,64576.00
2022-08-16T10:49:49.955Z,61792.00
2022-08-16T10:50:49.813Z,75104.00
2022-08-16T10:52:03.272Z,86080.00
2022-08-16T10:52:52.707Z,91744.00
2022-08-16T10:53:49.846Z,91712.00
2022-08-16T10:55:57.857Z,93952.00
2022-08-16T10:56:55.539Z,94208.00
2022-08-16T10:57:50.908Z,86528.00
2022-08-16T10:58:49.709Z,85504.00
2022-08-16T10:59:53.203Z,84096.00
2022-08-16T11:00:55.471Z,87392.00
2022-08-16T11:02:59.982Z,24736.00
2022-08-16T11:03:54.546Z,27296.00
2022-08-16T11:05:08.045Z,20544.00
2022-08-16T11:06:07.440Z,68224.00
2022-08-16T11:07:54.885Z,89984.00
2022-08-16T11:09:21.017Z,93600.00
2022-08-16T11:09:50.672Z,98208.00
2022-08-16T11:11:11.364Z,101408.00
2022-08-16T11:12:52.702Z,102496.00
2022-08-16T11:13:58.066Z,14640.00
2022-08-16T11:15:55.487Z,32512.00
2022-08-16T11:17:11.040Z,98432.00
2022-08-16T11:18:36.724Z,98528.00
2022-08-16T11:19:05.345Z,98432.00
2022-08-16T11:20:50.632Z,94720.00
2022-08-16T11:22:50.652Z,92448.00
2022-08-16T11:23:56.988Z,93184.00
2022-08-16T11:25:11.965Z,96032.00
2022-08-16T11:26:07.060Z,69792.00
2022-08-16T11:27:18.718Z,23520.00
2022-08-16T11:27:50.664Z,28576.00
2022-08-16T11:29:52.091Z,92992.00
2022-08-16T11:30:57.413Z,87424.00
2022-08-16T11:31:54.300Z,90912.00
2022-08-16T11:32:49.642Z,95808.00
2022-08-16T11:33:53.097Z,93984.00
2022-08-16T11:35:13.299Z,94208.00
2022-08-16T11:36:53.690Z,95136.00
2022-08-16T11:38:06.077Z,94016.00
2022-08-16T11:38:55.749Z,96192.00
2022-08-16T11:39:55.257Z,96320.00
2022-08-16T11:40:52.327Z,94752.00
2022-08-16T11:41:49.420Z,99616.00
2022-08-16T11:42:49.407Z,103200.00
2022-08-16T11:43:49.377Z,99424.00
2022-08-16T11:44:56.283Z,93408.00
2022-08-16T11:45:53.600Z,90528.00
2022-08-16T11:46:49.363Z,81632.00
2022-08-16T11:47:49.855Z,96032.00
2022-08-16T11:48:49.348Z,15356.00
2022-08-16T11:49:49.388Z,21120.00
2022-08-16T11:50:49.371Z,66624.00
2022-08-16T11:51:49.317Z,99744.00
2022-08-16T11:52:49.375Z,104960.00
2022-08-16T11:53:49.312Z,109504.00
2022-08-16T11:54:53.823Z,108032.00
2022-08-16T11:55:50.659Z,64064.00
2022-08-16T11:56:56.621Z,13792.00
2022-08-16T11:57:50.560Z,23232.00
2022-08-16T11:58:51.678Z,102592.00
2022-08-16T11:59:50.266Z,106112.00
2022-08-16T12:00:51.985Z,105952.00
2022-08-16T12:01:58.962Z,104640.00
2022-08-16T12:02:50.461Z,103168.00
2022-08-16T12:03:49.452Z,102112.00
2022-08-16T12:04:51.623Z,103008.00
2022-08-16T12:05:52.020Z,103136.00
2022-08-16T12:06:49.290Z,100736.00
2022-08-16T12:07:49.660Z,101472.00
2022-08-16T12:08:49.222Z,100640.00
2022-08-16T12:09:49.199Z,98208.00
2022-08-16T12:10:49.197Z,21472.00
2022-08-16T12:11:53.200Z,8580.00
2022-08-16T12:12:49.221Z,8128.00
2022-08-16T12:13:49.248Z,8052.00
2022-08-16T12:14:50.561Z,7744.00
2022-08-16T12:15:49.219Z,8008.00
2022-08-16T12:16:55.278Z,8720.00
2022-08-16T12:17:50.416Z,11096.00
2022-08-16T12:19:49.138Z,87680.00
2022-08-16T12:20:49.112Z,92896.00
2022-08-16T12:21:58.092Z,97504.00
2022-08-16T12:22:50.178Z,104544.00
2022-08-16T12:23:49.365Z,99584.00
2022-08-16T12:24:52.093Z,94560.00
2022-08-16T12:25:49.080Z,100064.00
2022-08-16T12:26:49.168Z,100000.00
2022-08-16T12:27:49.750Z,97088.00
2022-08-16T12:28:54.830Z,98880.00
2022-08-16T12:29:50.054Z,100352.00